Time,TemperatureF,DewpointF,PressureIn,WindDirection,WindDirectionDegrees,WindSpeedMPH,WindSpeedGustMPH,Humidity,HourlyPrecipIn,Conditions,Clouds,dailyrainin,SoftwareType,DateUTC
2013-05-26 00:15:00,41.7,33.4,30.01,NNW,337,2.2,-999.0,72,-99.99,,,0.00,Acu-Link.com,2013-05-26 04:15:00,
2013-05-26 00:30:00,41.0,33.0,30.02,WSW,247,0.0,-999.0,73,-99.99,,,0.00,Acu-Link.com,2013-05-26 04:30:00,
2013-05-26 00:45:00,40.5,33.2,30.01,NNW,337,2.2,-999.0,75,-99.99,,,0.00,Acu-Link.com,2013-05-26 04:45:00,
2013-05-26 01:00:00,41.7,33.0,30.01,WNW,292,2.7,-999.0,71,-99.99,,,0.00,Acu-Link.com,2013-05-26 05:00:00,
2013-05-26 01:15:00,41.2,32.9,30.01,West,270,0.0,-999.0,72,-99.99,,,0.00,Acu-Link.com,2013-05-26 05:15:00,
2013-05-26 01:30:00,40.3,33.3,30.00,East,90,0.0,-999.0,76,-99.99,,,0.00,Acu-Link.com,2013-05-26 05:30:00,
2013-05-26 01:46:00,40.3,33.0,30.00,NNW,337,0.0,-999.0,75,-99.99,,,0.00,Acu-Link.com,2013-05-26 05:46:00,
2013-05-26 02:01:00,38.8,33.2,30.00,West,270,1.7,-999.0,80,-99.99,,,0.00,Acu-Link.com,2013-05-26 06:01:00,
2013-05-26 02:16:00,39.0,33.1,29.99,West,270,2.2,-999.0,79,-99.99,,,0.00,Acu-Link.com,2013-05-26 06:16:00,
2013-05-26 02:31:00,38.8,32.9,29.99,NNW,337,0.0,-999.0,79,-99.99,,,0.00,Acu-Link.com,2013-05-26 06:31:00,
2013-05-26 02:46:00,38.5,32.6,29.98,WNW,292,0.0,-999.0,79,-99.99,,,0.00,Acu-Link.com,2013-05-26 06:46:00,
2013-05-26 03:01:00,38.1,33.1,29.98,NNW,337,0.0,-999.0,82,-99.99,,,0.00,Acu-Link.com,2013-05-26 07:01:00,
2013-05-26 03:16:00,38.3,33.9,29.98,West,270,2.2,-999.0,84,-99.99,,,0.00,Acu-Link.com,2013-05-26 07:16:00,
2013-05-26 03:32:00,38.3,33.6,29.99,NNE,22,0.0,-999.0,83,-99.99,,,0.00,Acu-Link.com,2013-05-26 07:32:00,
2013-05-26 03:47:00,38.1,33.1,29.99,WNW,292,1.1,-999.0,82,-99.99,,,0.00,Acu-Link.com,2013-05-26 07:47:00,
2013-05-26 04:02:00,37.9,33.2,29.99,NNW,337,0.0,-999.0,83,-99.99,,,0.00,Acu-Link.com,2013-05-26 08:02:00,
2013-05-26 04:18:00,37.8,33.1,29.99,NNW,337,0.0,-999.0,83,-99.99,,,0.00,Acu-Link.com,2013-05-26 08:18:00,
2013-05-26 04:33:00,37.8,33.1,29.99,North,0,0.0,-999.0,83,-99.99,,,0.00,Acu-Link.com,2013-05-26 08:33:00,
2013-05-26 04:48:00,37.4,32.7,30.00,NW,315,1.7,-999.0,83,-99.99,,,0.00,Acu-Link.com,2013-05-26 08:48:00,
2013-05-26 05:03:00,38.8,33.2,30.01,SSE,157,1.7,-999.0,80,-99.99,,,0.00,Acu-Link.com,2013-05-26 09:03:00,
2013-05-26 05:18:00,38.8,32.9,30.01,West,270,1.1,-999.0,79,-99.99,,,0.00,Acu-Link.com,2013-05-26 09:18:00,
2013-05-26 05:33:00,38.8,32.9,30.02,WSW,247,1.7,-999.0,79,-99.99,,,0.00,Acu-Link.com,2013-05-26 09:33:00,
2013-05-26 05:48:00,39.2,32.9,30.03,WNW,292,1.1,-999.0,78,-99.99,,,0.00,Acu-Link.com,2013-05-26 09:48:00,
2013-05-26 06:04:00,39.7,32.8,30.05,West,270,3.2,-999.0,76,-99.99,,,0.00,Acu-Link.com,2013-05-26 10:04:00,
2013-05-26 06:19:00,40.5,33.2,30.05,West,270,3.2,-999.0,75,-99.99,,,0.00,Acu-Link.com,2013-05-26 10:19:00,
2013-05-26 06:34:00,42.3,33.6,30.06,WNW,292,2.7,-999.0,71,-99.99,,,0.00,Acu-Link.com,2013-05-26 10:34:00,
2013-05-26 06:49:00,43.5,33.3,30.07,WSW,247,3.7,-999.0,67,-99.99,,,0.00,Acu-Link.com,2013-05-26 10:49:00,
2013-05-26 07:04:00,44.8,33.8,30.07,West,270,4.2,-999.0,65,-99.99,,,0.00,Acu-Link.com,2013-05-26 11:04:00,
2013-05-26 07:19:00,46.2,34.7,30.07,WNW,292,4.2,-999.0,64,-99.99,,,0.00,Acu-Link.com,2013-05-26 11:19:00,
2013-05-26 07:34:00,47.8,35.0,30.07,SW,225,2.7,-999.0,61,-99.99,,,0.00,Acu-Link.com,2013-05-26 11:34:00,
2013-05-26 07:49:00,50.9,36.2,30.07,NNW,337,2.2,-999.0,57,-99.99,,,0.00,Acu-Link.com,2013-05-26 11:49:00,
2013-05-26 08:04:00,52.0,36.3,30.06,WSW,247,1.7,-999.0,55,-99.99,,,0.00,Acu-Link.com,2013-05-26 12:04:00,
2013-05-26 08:20:00,52.5,36.3,30.07,West,270,3.2,-999.0,54,-99.99,,,0.00,Acu-Link.com,2013-05-26 12:20:00,
2013-05-26 08:35:00,53.8,37.1,30.07,WSW,247,2.7,-999.0,53,-99.99,,,0.00,Acu-Link.com,2013-05-26 12:35:00,
2013-05-26 08:50:00,54.3,37.1,30.07,North,0,2.7,-999.0,52,-99.99,,,0.00,Acu-Link.com,2013-05-26 12:50:00,
2013-05-26 09:05:00,53.6,36.4,30.07,ESE,112,1.7,-999.0,52,-99.99,,,0.00,Acu-Link.com,2013-05-26 13:05:00,
2013-05-26 09:20:00,55.2,36.4,30.06,SSW,202,6.3,-999.0,49,-99.99,,,0.00,Acu-Link.com,2013-05-26 13:20:00,
2013-05-26 09:35:00,55.6,36.7,30.06,NW,315,7.8,-999.0,49,-99.99,,,0.00,Acu-Link.com,2013-05-26 13:35:00,
2013-05-26 09:50:00,56.7,36.2,30.06,WNW,292,7.3,-999.0,46,-99.99,,,0.00,Acu-Link.com,2013-05-26 13:50:00,
2013-05-26 10:05:00,57.0,35.9,30.05,NW,315,8.9,-999.0,45,-99.99,,,0.00,Acu-Link.com,2013-05-26 14:05:00,
2013-05-26 10:20:00,57.7,35.4,30.05,WSW,247,10.4,-999.0,43,-99.99,,,0.00,Acu-Link.com,2013-05-26 14:20:00,
2013-05-26 10:36:00,59.0,35.9,30.05,NE,45,9.4,-999.0,42,-99.99,,,0.00,Acu-Link.com,2013-05-26 14:36:00,
2013-05-26 10:51:00,59.9,36.1,30.04,West,270,7.3,-999.0,41,-99.99,,,0.00,Acu-Link.com,2013-05-26 14:51:00,
2013-05-26 11:06:00,59.9,35.5,30.03,NW,315,8.3,-999.0,40,-99.99,,,0.00,Acu-Link.com,2013-05-26 15:06:00,
2013-05-26 11:21:00,61.3,35.5,30.03,West,270,3.7,-999.0,38,-99.99,,,0.00,Acu-Link.com,2013-05-26 15:21:00,
2013-05-26 11:36:00,63.0,35.6,30.03,WNW,292,7.3,-999.0,36,-99.99,,,0.00,Acu-Link.com,2013-05-26 15:36:00,
2013-05-26 11:51:00,63.3,35.2,30.04,West,270,8.9,-999.0,35,-99.99,,,0.00,Acu-Link.com,2013-05-26 15:51:00,
2013-05-26 12:06:00,64.2,34.5,30.04,NW,315,5.8,-999.0,33,-99.99,,,0.00,Acu-Link.com,2013-05-26 16:06:00,
2013-05-26 12:21:00,66.0,36.8,30.03,NW,315,6.3,-999.0,34,-99.99,,,0.00,Acu-Link.com,2013-05-26 16:21:00,
2013-05-26 12:37:00,65.7,34.2,30.02,NW,315,5.8,-999.0,31,-99.99,,,0.00,Acu-Link.com,2013-05-26 16:37:00,
2013-05-26 12:52:00,65.5,32.4,30.02,West,270,11.9,-999.0,29,-99.99,,,0.00,Acu-Link.com,2013-05-26 16:52:00,
2013-05-26 13:07:00,64.6,31.6,30.02,West,270,13.0,-999.0,29,-99.99,,,0.00,Acu-Link.com,2013-05-26 17:07:00,
2013-05-26 13:22:00,68.0,35.4,30.01,West,270,9.4,-999.0,30,-99.99,,,0.00,Acu-Link.com,2013-05-26 17:22:00,
2013-05-26 13:37:00,67.8,34.4,30.00,West,270,12.5,-999.0,29,-99.99,,,0.00,Acu-Link.com,2013-05-26 17:37:00,
2013-05-26 13:52:00,68.5,35.8,29.99,West,270,5.8,-999.0,30,-99.99,,,0.00,Acu-Link.com,2013-05-26 17:52:00,
2013-05-26 14:07:00,68.5,33.2,29.99,SSW,202,5.8,-999.0,27,-99.99,,,0.00,Acu-Link.com,2013-05-26 18:07:00,
2013-05-26 14:22:00,68.7,31.5,29.99,WNW,292,10.4,-999.0,25,-99.99,,,0.00,Acu-Link.com,2013-05-26 18:22:00,
2013-05-26 14:37:00,68.9,34.4,29.99,West,270,4.7,-999.0,28,-99.99,,,0.00,Acu-Link.com,2013-05-26 18:37:00,
2013-05-26 14:53:00,69.8,32.4,29.98,SW,225,8.9,-999.0,25,-99.99,,,0.00,Acu-Link.com,2013-05-26 18:53:00,
2013-05-26 15:08:00,69.6,32.2,29.98,WNW,292,15.5,-999.0,25,-99.99,,,0.00,Acu-Link.com,2013-05-26 19:08:00,
2013-05-26 15:23:00,70.2,32.7,29.97,West,270,6.8,-999.0,25,-99.99,,,0.00,Acu-Link.com,2013-05-26 19:23:00,
2013-05-26 15:38:00,70.9,33.3,29.97,West,270,14.5,-999.0,25,-99.99,,,0.00,Acu-Link.com,2013-05-26 19:38:00,
2013-05-26 15:53:00,70.5,32.0,29.96,WNW,292,11.4,-999.0,24,-99.99,,,0.00,Acu-Link.com,2013-05-26 19:53:00,
2013-05-26 16:08:00,70.9,32.3,29.96,West,270,6.3,-999.0,24,-99.99,,,0.00,Acu-Link.com,2013-05-26 20:08:00,
2013-05-26 16:23:00,71.1,32.5,29.96,NW,315,6.3,-999.0,24,-99.99,,,0.00,Acu-Link.com,2013-05-26 20:23:00,
2013-05-26 16:38:00,71.1,31.4,29.95,West,270,7.8,-999.0,23,-99.99,,,0.00,Acu-Link.com,2013-05-26 20:38:00,
2013-05-26 16:53:00,70.9,31.3,29.96,East,90,6.3,-999.0,23,-99.99,,,0.00,Acu-Link.com,2013-05-26 20:53:00,
2013-05-26 17:09:00,72.3,30.2,29.96,WNW,292,14.0,-999.0,21,-99.99,,,0.00,Acu-Link.com,2013-05-26 21:09:00,
2013-05-26 17:24:00,71.2,31.5,29.96,NW,315,8.3,-999.0,23,-99.99,,,0.00,Acu-Link.com,2013-05-26 21:24:00,
2013-05-26 17:39:00,71.1,31.4,29.97,WNW,292,7.3,-999.0,23,-99.99,,,0.00,Acu-Link.com,2013-05-26 21:39:00,
2013-05-26 17:54:00,71.6,31.8,29.97,SSW,202,3.2,-999.0,23,-99.99,,,0.00,Acu-Link.com,2013-05-26 21:54:00,
2013-05-26 18:09:00,72.0,32.2,29.97,West,270,3.2,-999.0,23,-99.99,,,0.00,Acu-Link.com,2013-05-26 22:09:00,
2013-05-26 18:24:00,72.3,32.4,29.98,WSW,247,3.7,-999.0,23,-99.99,,,0.00,Acu-Link.com,2013-05-26 22:24:00,
2013-05-26 18:39:00,70.7,32.1,29.99,West,270,2.7,-999.0,24,-99.99,,,0.00,Acu-Link.com,2013-05-26 22:39:00,
2013-05-26 18:54:00,69.6,32.2,29.99,West,270,5.8,-999.0,25,-99.99,,,0.00,Acu-Link.com,2013-05-26 22:54:00,
2013-05-26 19:09:00,69.1,31.8,30.00,West,270,2.7,-999.0,25,-99.99,,,0.00,Acu-Link.com,2013-05-26 23:09:00,
2013-05-26 19:25:00,70.0,32.6,30.00,South,180,2.2,-999.0,25,-99.99,,,0.00,Acu-Link.com,2013-05-26 23:25:00,
2013-05-26 19:40:00,69.1,30.8,30.00,West,270,4.2,-999.0,24,-99.99,,,0.00,Acu-Link.com,2013-05-26 23:40:00,
2013-05-26 19:55:00,68.5,32.3,30.01,NW,315,2.7,-999.0,26,-99.99,,,0.00,Acu-Link.com,2013-05-26 23:55:00,
2013-05-26 20:10:00,66.6,30.6,30.02,WNW,292,2.2,-999.0,26,-99.99,,,0.00,Acu-Link.com,2013-05-27 00:10:00,
2013-05-26 20:25:00,63.7,33.3,30.02,South,180,1.7,-999.0,32,-99.99,,,0.00,Acu-Link.com,2013-05-27 00:25:00,
2013-05-26 20:40:00,61.3,30.4,30.02,North,0,1.7,-999.0,31,-99.99,,,0.00,Acu-Link.com,2013-05-27 00:40:00,
2013-05-26 20:55:00,60.1,30.9,30.03,WSW,247,2.2,-999.0,33,-99.99,,,0.00,Acu-Link.com,2013-05-27 00:55:00,
2013-05-26 21:11:00,58.6,32.4,30.03,North,0,2.2,-999.0,37,-99.99,,,0.00,Acu-Link.com,2013-05-27 01:11:00,
2013-05-26 21:26:00,56.8,34.0,30.04,ENE,67,2.2,-999.0,42,-99.99,,,0.00,Acu-Link.com,2013-05-27 01:26:00,
2013-05-26 21:41:00,55.6,32.3,30.04,SSW,202,1.7,-999.0,41,-99.99,,,0.00,Acu-Link.com,2013-05-27 01:41:00,
2013-05-26 21:56:00,54.3,34.0,30.05,NNE,22,0.0,-999.0,46,-99.99,,,0.00,Acu-Link.com,2013-05-27 01:56:00,
2013-05-26 22:11:00,53.2,34.0,30.06,ENE,67,2.2,-999.0,48,-99.99,,,0.00,Acu-Link.com,2013-05-27 02:11:00,
2013-05-26 22:26:00,52.3,33.7,30.06,ESE,112,0.0,-999.0,49,-99.99,,,0.00,Acu-Link.com,2013-05-27 02:26:00,
2013-05-26 22:41:00,51.6,34.6,30.06,NE,45,0.0,-999.0,52,-99.99,,,0.00,Acu-Link.com,2013-05-27 02:41:00,
2013-05-26 22:56:00,49.1,35.0,30.07,NW,315,1.7,-999.0,58,-99.99,,,0.00,Acu-Link.com,2013-05-27 02:56:00,
2013-05-26 23:12:00,48.6,35.4,30.07,SSE,157,0.0,-999.0,60,-99.99,,,0.00,Acu-Link.com,2013-05-27 03:12:00,
2013-05-26 23:27:00,47.1,34.8,30.08,WNW,292,1.1,-999.0,62,-99.99,,,0.00,Acu-Link.com,2013-05-27 03:27:00,
2013-05-26 23:42:00,46.6,34.7,30.08,SW,225,0.0,-999.0,63,-99.99,,,0.00,Acu-Link.com,2013-05-27 03:42:00,
2013-05-26 23:57:00,45.3,34.6,30.09,WNW,292,2.7,-999.0,66,-99.99,,,0.00,Acu-Link.com,2013-05-27 03:57:00,